Time;durP1;ratioP1;P1;durP2;ratioP2;P2;SDS_P1;SDS_P2;PMS_P1;PMS_P2;Temp;Humidity;BMP_temperature;BMP_pressure;BME280_temperature;BME280_humidity;BME280_pressure;Samples;Min_cycle;Max_cycle;Signal;HPM_P1;HPM_P2
2022/06/16 00:01:13;;;;;;;7.00;3.60;;;18.60;98.00;;;;;;5031132;28;20529;-69
2022/06/16 00:03:40;;;;;;;2.80;2.30;;;18.60;98.00;;;;;;5029449;28;20897;-70
2022/06/16 00:06:07;;;;;;;4.70;2.70;;;18.50;98.00;;;;;;5030926;28;20995;-69
2022/06/16 00:08:34;;;;;;;5.87;3.03;;;18.40;98.00;;;;;;5030913;28;20461;-69
2022/06/16 00:11:20;;;;;;;3.40;2.33;;;18.40;98.00;;;;;;5029737;28;20483;-70
2022/06/16 00:13:49;;;;;;;7.33;2.80;;;18.30;98.00;;;;;;5031028;28;20455;-69
2022/06/16 00:16:17;;;;;;;3.20;2.47;;;18.20;98.00;;;;;;5030691;28;20470;-69
2022/06/16 00:18:45;;;;;;;5.40;3.20;;;18.20;98.00;;;;;;5030708;28;20889;-69
2022/06/16 00:21:13;;;;;;;2.73;2.00;;;18.10;98.00;;;;;;5029684;28;20483;-69
2022/06/16 00:23:40;;;;;;;4.20;2.40;;;18.10;98.00;;;;;;5030760;28;20545;-69
2022/06/16 00:26:12;;;;;;;4.80;2.90;;;18.10;98.00;;;;;;5030670;28;20824;-69
2022/06/16 00:28:40;;;;;;;3.90;2.57;;;18.20;98.00;;;;;;5030631;28;20462;-69
2022/06/16 00:31:13;;;;;;;3.03;2.30;;;18.10;98.00;;;;;;5030657;28;20510;-69
2022/06/16 00:33:41;;;;;;;5.20;2.90;;;18.00;98.00;;;;;;5030723;28;20969;-69
2022/06/16 00:36:09;;;;;;;5.53;2.53;;;17.90;98.00;;;;;;5030650;28;20546;-69
2022/06/16 00:38:36;;;;;;;5.80;2.90;;;18.00;98.00;;;;;;5030533;28;20957;-69
2022/06/16 00:41:03;;;;;;;3.20;2.30;;;18.00;98.00;;;;;;5030628;28;20446;-69
2022/06/16 00:43:31;;;;;;;3.40;2.63;;;17.90;98.00;;;;;;5030482;28;20463;-69
2022/06/16 00:46:01;;;;;;;3.73;2.53;;;18.00;98.00;;;;;;5033330;28;20446;-69
2022/06/16 00:48:35;;;;;;;4.57;2.90;;;18.00;98.00;;;;;;5034435;28;20457;-69
2022/06/16 00:51:08;;;;;;;6.53;2.93;;;17.90;98.00;;;;;;5034214;28;20688;-69
2022/06/16 00:53:36;;;;;;;4.20;2.57;;;17.90;98.00;;;;;;5034640;28;20462;-69
2022/06/16 00:56:04;;;;;;;2.80;1.90;;;17.80;98.00;;;;;;5034218;28;20459;-69
2022/06/16 00:58:34;;;;;;;2.67;2.30;;;17.90;98.00;;;;;;5034184;28;20461;-69
2022/06/16 01:01:01;;;;;;;4.33;2.60;;;17.90;98.00;;;;;;5032832;28;20458;-69
2022/06/16 01:06:20;;;;;;;3.70;2.57;;;18.10;98.00;;;;;;5033039;28;20827;-69
2022/06/16 01:08:50;;;;;;;5.57;3.03;;;18.20;98.00;;;;;;5033772;28;20520;-69
2022/06/16 01:14:22;;;;;;;4.20;2.70;;;18.10;98.00;;;;;;5033723;28;20597;-69
2022/06/16 01:16:52;;;;;;;3.13;2.00;;;18.00;98.00;;;;;;5033707;28;20545;-69
2022/06/16 01:19:45;;;;;;;2.70;2.10;;;17.80;98.00;;;;;;5033689;28;20457;-69
2022/06/16 01:22:17;;;;;;;5.20;2.50;;;17.70;98.00;;;;;;5032400;28;20451;-69
2022/06/16 01:24:57;;;;;;;3.70;2.57;;;17.60;98.00;;;;;;5033525;28;20458;-69
2022/06/16 01:27:45;;;;;;;3.57;2.43;;;17.60;98.00;;;;;;5033491;28;20820;-69
2022/06/16 01:30:18;;;;;;;4.47;2.83;;;17.70;98.00;;;;;;5032426;28;20462;-69
2022/06/16 01:32:51;;;;;;;4.70;3.13;;;17.80;98.00;;;;;;5033174;28;20486;-69
2022/06/16 01:35:28;;;;;;;4.70;2.67;;;17.70;98.00;;;;;;5033344;28;20949;-69
2022/06/16 01:38:03;;;;;;;5.63;2.60;;;17.60;98.00;;;;;;5031966;28;20967;-69
2022/06/16 01:40:38;;;;;;;4.13;2.30;;;17.60;98.00;;;;;;5033382;28;20836;-69
2022/06/16 01:43:13;;;;;;;3.30;2.20;;;17.40;98.00;;;;;;5033010;28;20458;-69
2022/06/16 01:45:47;;;;;;;3.10;2.23;;;17.20;98.00;;;;;;5033132;28;20545;-69
2022/06/16 01:48:16;;;;;;;2.47;2.20;;;17.10;98.00;;;;;;5033065;28;20896;-69
2022/06/16 01:50:48;;;;;;;2.57;2.13;;;17.20;98.00;;;;;;5033216;28;20835;-69
2022/06/16 01:53:20;;;;;;;2.70;2.13;;;17.20;98.00;;;;;;5032873;28;20509;-69
2022/06/16 01:55:53;;;;;;;7.80;2.30;;;17.10;98.00;;;;;;5032636;28;20831;-69
2022/06/16 01:58:26;;;;;;;3.13;2.20;;;17.10;98.00;;;;;;5031619;28;20454;-69
2022/06/16 02:00:57;;;;;;;3.97;2.07;;;17.00;98.00;;;;;;5033148;28;20451;-69
2022/06/16 02:03:31;;;;;;;3.30;2.10;;;16.90;98.00;;;;;;5032875;28;21003;-69
2022/06/16 02:06:03;;;;;;;2.77;2.47;;;16.80;98.00;;;;;;5032771;28;20458;-69
2022/06/16 02:08:35;;;;;;;4.47;2.50;;;16.80;98.00;;;;;;5032786;28;20469;-69
2022/06/16 02:11:06;;;;;;;5.47;2.50;;;16.70;98.00;;;;;;5032671;28;20458;-69
2022/06/16 02:13:38;;;;;;;4.60;2.50;;;16.70;98.00;;;;;;5032471;28;20483;-69
2022/06/16 02:16:11;;;;;;;4.33;2.03;;;16.60;98.00;;;;;;5032738;28;20830;-69
2022/06/16 02:18:41;;;;;;;3.57;2.30;;;16.60;98.00;;;;;;5032313;28;20969;-69
2022/06/16 02:21:15;;;;;;;2.50;2.10;;;16.70;98.00;;;;;;5032496;28;20558;-69
2022/06/16 02:23:44;;;;;;;3.77;2.60;;;16.60;98.00;;;;;;5032245;28;20553;-69
2022/06/16 02:26:12;;;;;;;5.93;2.50;;;16.50;98.00;;;;;;5032487;28;20454;-69
2022/06/16 02:28:45;;;;;;;2.40;2.00;;;16.50;98.00;;;;;;5031107;28;20450;-69
2022/06/16 02:31:24;;;;;;;2.00;1.83;;;16.40;98.00;;;;;;5032244;28;20968;-69
2022/06/16 02:34:01;;;;;;;3.03;2.13;;;16.40;98.00;;;;;;5032105;28;20459;-69
2022/06/16 02:36:47;;;;;;;3.77;2.43;;;16.40;98.00;;;;;;5032208;28;20934;-69
2022/06/16 02:39:27;;;;;;;4.60;2.67;;;16.40;98.00;;;;;;5032090;28;20465;-69
2022/06/16 02:42:02;;;;;;;3.87;2.67;;;16.50;98.00;;;;;;5031993;28;20458;-69
2022/06/16 02:44:39;;;;;;;3.20;2.00;;;16.60;98.00;;;;;;5031986;28;21059;-69
2022/06/16 02:47:16;;;;;;;3.17;2.27;;;16.50;98.00;;;;;;5031956;28;20461;-69
2022/06/16 02:49:49;;;;;;;3.00;2.13;;;16.40;98.00;;;;;;5031985;28;20937;-69
2022/06/16 02:52:25;;;;;;;3.97;2.40;;;16.30;98.00;;;;;;5032047;28;20482;-69
2022/06/16 02:55:00;;;;;;;3.87;2.50;;;16.20;98.00;;;;;;5031660;28;20463;-69
2022/06/16 02:57:34;;;;;;;2.50;1.93;;;16.20;98.00;;;;;;5030636;28;20457;-69
2022/06/16 03:00:09;;;;;;;3.10;2.17;;;16.20;98.00;;;;;;5031863;28;20465;-69
2022/06/16 03:02:41;;;;;;;3.57;2.07;;;16.20;98.00;;;;;;5031679;28;20956;-69
2022/06/16 03:05:09;;;;;;;5.20;2.67;;;16.10;98.00;;;;;;5031925;28;20517;-69
2022/06/16 03:07:37;;;;;;;3.60;2.37;;;16.20;98.00;;;;;;5031443;28;20451;-69
2022/06/16 03:10:05;;;;;;;4.90;2.77;;;16.20;98.00;;;;;;5031610;28;20814;-69
2022/06/16 03:12:32;;;;;;;3.57;2.40;;;16.20;98.00;;;;;;5031546;28;20843;-69
2022/06/16 03:14:59;;;;;;;4.20;2.20;;;16.00;98.00;;;;;;5031163;28;20473;-69
2022/06/16 03:17:27;;;;;;;4.73;2.60;;;16.00;98.00;;;;;;5031475;28;20451;-69
2022/06/16 03:19:56;;;;;;;3.63;2.37;;;15.90;98.00;;;;;;5030091;28;20465;-69
2022/06/16 03:22:26;;;;;;;7.13;2.67;;;15.80;98.00;;;;;;5031392;28;20462;-69
2022/06/16 03:24:53;;;;;;;3.20;2.27;;;15.90;98.00;;;;;;5031283;28;20455;-69
2022/06/16 03:27:20;;;;;;;3.03;2.10;;;15.90;98.00;;;;;;5030079;28;20829;-69
2022/06/16 03:29:48;;;;;;;4.73;2.10;;;16.10;98.00;;;;;;5031264;28;20450;-69
2022/06/16 03:32:15;;;;;;;5.13;2.23;;;16.00;98.00;;;;;;5031049;28;20482;-69
2022/06/16 03:34:42;;;;;;;3.70;2.23;;;16.10;98.00;;;;;;5031068;28;20462;-69
2022/06/16 03:37:12;;;;;;;4.07;2.40;;;16.20;98.00;;;;;;5031272;28;20455;-70
2022/06/16 03:39:39;;;;;;;2.80;2.33;;;16.20;98.00;;;;;;5031087;28;20454;-69
2022/06/16 03:42:06;;;;;;;2.80;2.23;;;16.00;98.00;;;;;;5031292;28;20957;-69
2022/06/16 03:44:34;;;;;;;4.77;2.30;;;15.90;98.00;;;;;;5031079;28;20454;-69
2022/06/16 03:47:01;;;;;;;3.27;2.30;;;15.80;98.00;;;;;;5031028;28;20976;-70
2022/06/16 03:49:29;;;;;;;4.40;2.37;;;15.90;98.00;;;;;;5031104;28;20450;-69
2022/06/16 03:51:56;;;;;;;2.40;1.93;;;15.80;98.00;;;;;;5029869;28;20541;-69
2022/06/16 03:54:24;;;;;;;4.03;2.60;;;15.90;98.00;;;;;;5031030;28;20524;-69
2022/06/16 03:56:52;;;;;;;2.20;1.97;;;16.00;98.00;;;;;;5031041;28;20813;-69
2022/06/16 03:59:21;;;;;;;3.30;2.20;;;15.90;98.00;;;;;;5030995;28;20875;-69
2022/06/16 04:01:48;;;;;;;3.00;2.03;;;15.90;98.00;;;;;;5030974;28;20451;-69
2022/06/16 04:04:15;;;;;;;3.13;2.30;;;15.80;98.00;;;;;;5031276;28;20474;-69
2022/06/16 04:06:43;;;;;;;4.37;2.50;;;15.80;98.00;;;;;;5031199;28;20461;-69
2022/06/16 04:09:10;;;;;;;5.47;2.80;;;15.80;98.00;;;;;;5031162;28;20589;-69
2022/06/16 04:11:38;;;;;;;3.53;2.50;;;16.00;98.00;;;;;;5030917;28;20450;-69
2022/06/16 04:14:08;;;;;;;2.53;2.00;;;15.90;98.00;;;;;;5030634;28;20891;-70
2022/06/16 04:16:37;;;;;;;4.20;2.40;;;16.00;98.00;;;;;;5029792;28;20526;-70
2022/06/16 04:19:05;;;;;;;4.40;2.80;;;16.20;98.00;;;;;;5029767;28;20454;-69
2022/06/16 04:21:32;;;;;;;3.00;1.97;;;16.20;98.00;;;;;;5033404;28;20450;-69
2022/06/16 04:24:02;;;;;;;3.97;2.33;;;16.20;98.00;;;;;;5033144;28;20463;-69
2022/06/16 04:26:30;;;;;;;3.07;2.17;;;16.20;98.00;;;;;;5033250;28;20478;-69
2022/06/16 04:28:59;;;;;;;4.40;2.80;;;16.20;98.00;;;;;;5033058;28;20455;-69
2022/06/16 04:31:26;;;;;;;4.47;2.53;;;16.50;98.00;;;;;;5033246;28;20465;-70
2022/06/16 04:33:54;;;;;;;3.00;2.03;;;16.70;98.00;;;;;;5033066;28;20845;-70
2022/06/16 04:36:21;;;;;;;2.43;1.80;;;17.00;98.00;;;;;;5033327;28;20945;-69
2022/06/16 04:38:49;;;;;;;4.93;2.60;;;17.20;98.00;;;;;;5032982;28;20459;-69
2022/06/16 04:41:19;;;;;;;4.73;2.37;;;17.20;98.00;;;;;;5033115;28;20521;-70
2022/06/16 04:43:46;;;;;;;5.60;2.80;;;17.30;98.00;;;;;;5033281;28;20447;-69
2022/06/16 04:46:16;;;;;;;3.60;2.27;;;17.20;98.00;;;;;;5033064;28;20501;-70
2022/06/16 04:48:44;;;;;;;3.40;2.40;;;17.20;98.00;;;;;;5033041;28;20451;-70
2022/06/16 04:51:12;;;;;;;7.60;2.63;;;17.20;98.00;;;;;;5033024;28;20469;-70
2022/06/16 04:53:40;;;;;;;3.63;2.37;;;17.30;98.00;;;;;;5032827;28;20490;-70
2022/06/16 04:56:08;;;;;;;3.07;2.27;;;17.40;98.00;;;;;;5032903;28;20466;-70
2022/06/16 04:58:40;;;;;;;4.87;2.80;;;17.60;98.00;;;;;;5033104;28;20461;-70
2022/06/16 05:01:07;;;;;;;4.93;2.70;;;17.70;98.00;;;;;;5032869;28;20546;-70
2022/06/16 05:03:37;;;;;;;2.73;2.30;;;17.80;98.00;;;;;;5032933;28;20780;-70
2022/06/16 05:06:04;;;;;;;3.40;2.40;;;17.80;98.00;;;;;;5032945;28;20835;-70
2022/06/16 05:08:31;;;;;;;5.30;3.33;;;17.90;98.00;;;;;;5032805;28;20465;-70
2022/06/16 05:10:59;;;;;;;4.17;2.53;;;18.20;98.00;;;;;;5032850;28;20481;-70
2022/06/16 05:13:26;;;;;;;4.07;2.20;;;18.20;98.00;;;;;;5032578;28;20539;-70
2022/06/16 05:15:54;;;;;;;3.60;2.37;;;18.30;98.00;;;;;;4992076;28;1186546;-70
2022/06/16 05:18:21;;;;;;;4.20;2.70;;;18.30;98.00;;;;;;5033766;28;20200;-70
2022/06/16 05:20:51;;;;;;;4.13;2.60;;;18.50;98.00;;;;;;5033585;28;20451;-70
2022/06/16 05:23:18;;;;;;;3.70;2.60;;;18.70;98.00;;;;;;5033244;28;20455;-70
2022/06/16 05:25:45;;;;;;;4.10;2.97;;;19.00;98.00;;;;;;5033641;28;20837;-70
2022/06/16 05:28:12;;;;;;;3.30;2.30;;;19.10;98.00;;;;;;5033467;28;20451;-69
2022/06/16 05:30:40;;;;;;;4.83;3.30;;;18.90;98.00;;;;;;5031548;28;20462;-70
2022/06/16 05:33:07;;;;;;;4.50;2.90;;;19.00;98.00;;;;;;5032561;28;21039;-70
2022/06/16 05:35:34;;;;;;;4.87;2.67;;;19.10;98.00;;;;;;5033431;28;20465;-70
2022/06/16 05:38:03;;;;;;;5.73;3.10;;;19.20;98.00;;;;;;5033141;28;20512;-71
2022/06/16 05:40:30;;;;;;;5.43;2.90;;;19.20;98.00;;;;;;5033411;28;20869;-70
2022/06/16 05:42:57;;;;;;;6.30;3.63;;;19.00;98.00;;;;;;5033017;28;20458;-71
2022/06/16 05:45:25;;;;;;;5.73;3.03;;;18.90;98.00;;;;;;5033185;28;20474;-70
2022/06/16 05:47:53;;;;;;;3.67;2.30;;;18.90;98.00;;;;;;5032894;28;20459;-70
2022/06/16 05:50:22;;;;;;;3.80;2.67;;;18.90;98.00;;;;;;5033268;28;20547;-70
2022/06/16 05:52:49;;;;;;;4.00;2.57;;;19.00;98.00;;;;;;5031704;28;20522;-70
2022/06/16 05:55:20;;;;;;;4.73;2.60;;;19.10;98.00;;;;;;5032867;28;20455;-70
2022/06/16 05:57:47;;;;;;;3.13;2.70;;;19.30;98.00;;;;;;5032804;28;20473;-70
2022/06/16 06:00:15;;;;;;;4.40;2.50;;;19.40;98.00;;;;;;5032738;28;20457;-69
2022/06/16 06:02:43;;;;;;;4.67;3.00;;;19.80;98.00;;;;;;5031704;28;20454;-70
2022/06/16 06:05:12;;;;;;;4.47;3.33;;;20.00;98.00;;;;;;5032810;28;20953;-70
2022/06/16 06:18:40;;;;;;;5.17;3.20;;;20.40;98.00;;;;;;5032784;28;20495;-70
2022/06/16 06:21:07;;;;;;;4.20;2.67;;;20.60;98.00;;;;;;5032399;28;20505;-70
2022/06/16 06:23:34;;;;;;;6.53;3.30;;;20.70;98.00;;;;;;5032466;28;20455;-70
2022/06/16 06:26:02;;;;;;;4.27;2.77;;;20.70;98.00;;;;;;5032447;28;21018;-70
2022/06/16 06:28:30;;;;;;;5.97;3.03;;;20.80;98.00;;;;;;5032308;28;20458;-70
2022/06/16 06:30:57;;;;;;;3.30;2.80;;;20.90;98.00;;;;;;5030941;28;20451;-70
2022/06/16 06:33:24;;;;;;;7.43;3.83;;;20.90;98.00;;;;;;5032064;28;20487;-70
2022/06/16 06:35:51;;;;;;;3.90;3.10;;;20.90;98.00;;;;;;5032065;28;20455;-70
2022/06/16 06:38:18;;;;;;;5.10;3.30;;;20.90;98.00;;;;;;5032115;28;20455;-70
2022/06/16 06:40:45;;;;;;;6.33;3.53;;;21.00;98.00;;;;;;5032181;28;20818;-70
2022/06/16 06:43:15;;;;;;;5.57;3.90;;;21.00;98.00;;;;;;5031324;28;20462;-70
2022/06/16 06:45:42;;;;;;;5.80;3.30;;;21.00;98.00;;;;;;5032171;28;20458;-70
2022/06/16 06:48:10;;;;;;;3.90;3.00;;;21.10;98.00;;;;;;5031754;28;20644;-70
2022/06/16 06:50:41;;;;;;;4.90;3.27;;;21.30;98.00;;;;;;5031924;28;20454;-70
2022/06/16 06:53:09;;;;;;;5.37;3.60;;;21.40;98.00;;;;;;5031736;28;20486;-70
2022/06/16 06:55:38;;;;;;;4.80;3.13;;;21.50;98.00;;;;;;5015990;28;20880;-70
2022/06/16 06:58:07;;;;;;;6.40;3.50;;;21.50;98.00;;;;;;5012204;28;20468;-70
2022/06/16 07:00:35;;;;;;;4.80;3.00;;;21.60;98.00;;;;;;5012020;28;20538;-71
2022/06/16 07:03:05;;;;;;;4.37;3.07;;;21.70;98.00;;;;;;5012020;28;20455;-71
2022/06/16 07:05:32;;;;;;;5.40;3.33;;;21.90;98.00;;;;;;5012095;28;20459;-70
2022/06/16 07:07:59;;;;;;;4.90;3.10;;;22.10;98.00;;;;;;5012058;28;20459;-70
2022/06/16 07:10:27;;;;;;;6.13;3.53;;;22.30;98.00;;;;;;5012062;28;20530;-71
2022/06/16 07:12:54;;;;;;;6.40;3.63;;;22.40;98.00;;;;;;5011775;28;20455;-70
2022/06/16 07:15:22;;;;;;;4.23;2.83;;;22.60;98.00;;;;;;5011624;28;20478;-68
2022/06/16 07:17:50;;;;;;;3.73;2.80;;;22.80;98.00;;;;;;5011661;28;20460;-69
2022/06/16 07:20:18;;;;;;;5.10;2.97;;;23.00;98.00;;;;;;5011716;28;20456;-69
2022/06/16 07:22:46;;;;;;;6.03;2.97;;;23.00;98.00;;;;;;5010462;28;20466;-67
2022/06/16 07:25:14;;;;;;;5.13;2.90;;;23.10;98.00;;;;;;5011533;28;20459;-69
2022/06/16 07:27:41;;;;;;;5.33;3.27;;;23.20;98.00;;;;;;5010226;28;20466;-67
2022/06/16 07:30:14;;;;;;;5.60;3.63;;;23.40;97.10;;;;;;5010372;28;20456;-66
2022/06/16 07:32:42;;;;;;;4.60;2.67;;;23.40;96.80;;;;;;5012153;28;20459;-67
2022/06/16 07:35:12;;;;;;;6.47;3.27;;;23.40;97.00;;;;;;5011972;28;20483;-67
2022/06/16 07:37:39;;;;;;;6.27;3.20;;;23.60;95.70;;;;;;5012394;28;21149;-69
2022/06/16 07:40:08;;;;;;;5.17;3.53;;;23.80;95.80;;;;;;5011955;28;20455;-68
2022/06/16 07:42:35;;;;;;;6.13;3.30;;;23.90;94.10;;;;;;5012210;28;20464;-68
2022/06/16 07:45:02;;;;;;;6.27;3.17;;;24.00;95.00;;;;;;5010757;28;20451;-69
2022/06/16 07:47:30;;;;;;;7.23;3.07;;;24.10;95.90;;;;;;5012190;28;20859;-67
2022/06/16 07:49:58;;;;;;;5.20;3.40;;;24.10;93.10;;;;;;5010817;28;20463;-67
2022/06/16 07:52:27;;;;;;;4.90;2.90;;;24.10;92.90;;;;;;5012175;28;20476;-67
2022/06/16 07:54:54;;;;;;;4.90;3.20;;;24.10;92.70;;;;;;5013406;28;20487;-67
2022/06/16 07:57:23;;;;;;;5.53;3.17;;;24.10;93.10;;;;;;5016107;28;20447;-68
2022/06/16 07:59:53;;;;;;;7.97;3.73;;;24.20;92.80;;;;;;5016214;28;20455;-68
2022/06/16 08:02:20;;;;;;;6.97;3.73;;;24.20;90.90;;;;;;5016146;28;20463;-68
2022/06/16 08:04:47;;;;;;;4.93;3.37;;;24.10;91.70;;;;;;5015917;28;20455;-69
2022/06/16 08:07:15;;;;;;;7.07;3.50;;;24.20;93.60;;;;;;5016231;28;20463;-66
2022/06/16 08:09:43;;;;;;;6.27;3.60;;;24.40;89.70;;;;;;5014713;28;20456;-65
2022/06/16 08:12:12;;;;;;;5.10;3.10;;;24.50;92.20;;;;;;5015971;28;20451;-67
2022/06/16 08:14:44;;;;;;;6.70;3.40;;;24.50;88.40;;;;;;5015381;28;21010;-64
2022/06/16 08:17:13;;;;;;;5.73;3.13;;;24.50;88.90;;;;;;5015716;28;20455;-67
2022/06/16 08:19:41;;;;;;;7.60;3.50;;;24.50;89.90;;;;;;5015495;28;20459;-63
2022/06/16 08:22:12;;;;;;;4.30;3.17;;;24.50;91.40;;;;;;5015758;28;20451;-63
2022/06/16 08:24:39;;;;;;;5.97;3.40;;;24.60;91.00;;;;;;5015584;28;20874;-63
2022/06/16 08:27:08;;;;;;;4.60;3.13;;;24.80;90.70;;;;;;5015491;28;20470;-63
2022/06/16 08:29:37;;;;;;;5.17;3.80;;;24.80;88.80;;;;;;5015465;28;20461;-64
2022/06/16 08:32:05;;;;;;;6.40;3.23;;;24.70;87.80;;;;;;5015538;28;20463;-62
2022/06/16 08:34:32;;;;;;;7.90;3.50;;;24.70;88.60;;;;;;5015186;28;21208;-66
2022/06/16 08:36:59;;;;;;;6.00;3.90;;;24.70;91.50;;;;;;5015313;28;20447;-68
2022/06/16 08:39:26;;;;;;;5.90;3.73;;;24.90;90.10;;;;;;5015263;28;20965;-71
2022/06/16 08:42:01;;;;;;;5.87;3.20;;;25.00;89.30;;;;;;5015290;28;20460;-72
2022/06/16 08:44:34;;;;;;;6.83;3.10;;;25.10;91.60;;;;;;5015407;28;20482;-70
2022/06/16 08:47:06;;;;;;;5.70;3.40;;;25.40;90.60;;;;;;5014973;28;20845;-68
2022/06/16 08:49:43;;;;;;;6.07;2.90;;;25.50;88.70;;;;;;5015240;28;20459;-64
2022/06/16 08:52:21;;;;;;;5.77;3.23;;;25.60;87.90;;;;;;5014049;28;20462;-69
2022/06/16 08:54:59;;;;;;;5.27;3.13;;;25.90;88.90;;;;;;5015104;28;20533;-69
2022/06/16 08:57:39;;;;;;;4.77;2.80;;;26.00;87.20;;;;;;5015155;28;20463;-69
2022/06/16 09:00:13;;;;;;;6.43;3.47;;;25.90;86.80;;;;;;5014935;28;20463;-65
2022/06/16 09:02:47;;;;;;;5.23;3.37;;;25.90;86.80;;;;;;5015064;28;20463;-67
2022/06/16 09:05:31;;;;;;;4.83;3.30;;;26.00;85.20;;;;;;5014648;28;20455;-66
2022/06/16 09:08:09;;;;;;;5.97;3.90;;;26.00;85.90;;;;;;5015206;28;20463;-66
2022/06/16 09:10:44;;;;;;;4.10;3.17;;;26.10;85.30;;;;;;5014816;28;20459;-68
2022/06/16 09:13:49;;;;;;;5.30;3.43;;;26.10;87.00;;;;;;5014940;28;20470;-65
2022/06/16 09:16:29;;;;;;;6.50;3.53;;;26.30;86.10;;;;;;5014494;28;20639;-67
2022/06/16 09:19:14;;;;;;;3.87;2.77;;;26.40;84.80;;;;;;5014595;28;20459;-67
2022/06/16 09:21:51;;;;;;;6.13;3.00;;;26.50;84.20;;;;;;5014326;28;20463;-68
2022/06/16 09:24:33;;;;;;;5.37;3.37;;;26.60;80.40;;;;;;5014306;28;20458;-66
2022/06/16 09:27:05;;;;;;;5.97;3.27;;;26.50;80.50;;;;;;5014250;28;20472;-66
2022/06/16 09:29:39;;;;;;;5.27;3.27;;;26.40;80.30;;;;;;5014390;28;20463;-65
2022/06/16 09:32:13;;;;;;;5.93;2.93;;;26.60;83.10;;;;;;5013481;28;20467;-66
2022/06/16 09:34:44;;;;;;;5.63;3.17;;;26.80;80.30;;;;;;5014121;28;21112;-66
2022/06/16 09:37:16;;;;;;;4.80;3.07;;;26.90;80.00;;;;;;5014311;28;20544;-67
2022/06/16 09:39:48;;;;;;;7.53;3.30;;;27.00;79.90;;;;;;5014209;28;20468;-65
2022/06/16 09:42:36;;;;;;;4.03;2.77;;;27.00;81.10;;;;;;5014042;28;20817;-66
2022/06/16 09:45:18;;;;;;;5.20;3.20;;;27.20;82.40;;;;;;5010901;28;20517;-69
2022/06/16 09:47:51;;;;;;;4.83;2.93;;;27.40;81.60;;;;;;5004378;28;20693;-69
2022/06/16 09:50:30;;;;;;;4.90;3.03;;;27.60;81.00;;;;;;5009046;28;20466;-69
2022/06/16 09:53:04;;;;;;;5.03;3.17;;;27.60;79.20;;;;;;5011059;28;20467;-70
2022/06/16 09:55:37;;;;;;;6.37;3.17;;;27.50;81.40;;;;;;5011129;28;20499;-70
2022/06/16 09:58:13;;;;;;;6.17;3.57;;;27.40;80.20;;;;;;5009748;28;20466;-69
2022/06/16 10:00:41;;;;;;;5.70;3.47;;;27.30;81.40;;;;;;5011205;28;20522;-69
2022/06/16 10:03:24;;;;;;;6.07;3.63;;;27.40;82.90;;;;;;5009811;28;20459;-73
2022/06/16 10:06:04;;;;;;;5.90;3.60;;;27.50;80.60;;;;;;5011106;28;20456;-69
2022/06/16 10:08:42;;;;;;;6.00;3.20;;;27.60;81.10;;;;;;5010970;28;20459;-70
2022/06/16 10:11:16;;;;;;;6.90;3.50;;;27.80;81.70;;;;;;5011119;28;20518;-68
2022/06/16 10:13:51;;;;;;;5.77;3.27;;;27.90;83.30;;;;;;5010706;28;20475;-69
2022/06/16 10:16:24;;;;;;;5.40;3.37;;;28.00;82.40;;;;;;5010614;28;21139;-69
2022/06/16 10:18:53;;;;;;;5.93;3.60;;;28.00;82.50;;;;;;5010018;28;20480;-68
2022/06/16 10:21:21;;;;;;;5.50;3.37;;;28.00;81.40;;;;;;5010719;28;20470;-68
2022/06/16 10:23:52;;;;;;;6.07;3.63;;;27.90;81.00;;;;;;5010771;28;20865;-69
2022/06/16 10:26:20;;;;;;;5.30;3.37;;;27.90;81.50;;;;;;5010453;28;20452;-69
2022/06/16 10:29:03;;;;;;;6.57;3.30;;;28.00;81.70;;;;;;5010285;28;20474;-66
2022/06/16 10:31:36;;;;;;;5.93;3.80;;;28.00;82.70;;;;;;5009945;28;20463;-67
2022/06/16 10:34:16;;;;;;;5.73;3.73;;;27.90;81.30;;;;;;5008605;28;20502;-67
2022/06/16 10:36:50;;;;;;;5.93;3.90;;;27.80;81.20;;;;;;5010250;28;20482;-67
2022/06/16 10:39:20;;;;;;;6.30;3.70;;;27.90;84.40;;;;;;5009954;28;20836;-68
2022/06/16 10:41:55;;;;;;;9.27;4.40;;;28.10;83.60;;;;;;5010295;28;20456;-67
2022/06/16 10:44:25;;;;;;;6.80;4.20;;;28.30;82.50;;;;;;5020587;28;21004;-76
2022/06/16 10:46:55;;;;;;;5.17;3.63;;;28.40;83.00;;;;;;5032932;28;20802;-66
2022/06/16 10:49:28;;;;;;;6.17;3.90;;;28.60;82.70;;;;;;5032859;28;20945;-67
2022/06/16 10:52:00;;;;;;;6.57;3.97;;;28.60;82.30;;;;;;5032751;28;20466;-67
2022/06/16 10:54:30;;;;;;;5.40;4.00;;;28.80;82.90;;;;;;5032309;28;20470;-67
2022/06/16 10:57:17;;;;;;;8.23;4.13;;;28.90;82.90;;;;;;5032662;28;20454;-67
2022/06/16 10:59:50;;;;;;;7.03;4.03;;;29.10;83.90;;;;;;5032669;28;20937;-67
2022/06/16 11:02:22;;;;;;;13.33;4.53;;;29.40;82.20;;;;;;5032526;28;20450;-68
2022/06/16 11:04:58;;;;;;;7.90;4.27;;;29.50;80.50;;;;;;5032502;28;20450;-68
2022/06/16 11:07:28;;;;;;;5.73;3.53;;;29.70;79.30;;;;;;5030557;28;20458;-68
2022/06/16 11:10:03;;;;;;;7.30;3.90;;;29.70;76.90;;;;;;5031931;28;20458;-66
2022/06/16 11:12:31;;;;;;;5.97;3.83;;;29.80;78.50;;;;;;5031754;28;20516;-67
2022/06/16 11:15:02;;;;;;;6.20;3.80;;;29.80;76.90;;;;;;5031416;28;20497;-67
2022/06/16 11:17:31;;;;;;;6.27;3.23;;;29.60;77.60;;;;;;5031755;28;20466;-66
2022/06/16 11:20:04;;;;;;;7.07;4.17;;;29.60;77.90;;;;;;5031458;28;20458;-66
2022/06/16 11:22:35;;;;;;;6.73;3.40;;;29.50;78.00;;;;;;5031586;28;20457;-67
2022/06/16 11:25:06;;;;;;;6.60;3.70;;;29.40;78.10;;;;;;5031710;28;20454;-66
2022/06/16 11:27:43;;;;;;;6.27;4.17;;;29.60;78.00;;;;;;5032138;28;20455;-68
2022/06/16 11:30:36;;;;;;;5.30;3.50;;;29.90;79.60;;;;;;5015183;28;20487;-67
2022/06/16 11:33:05;;;;;;;5.60;3.80;;;30.10;79.40;;;;;;5021181;28;20459;-67
2022/06/16 11:35:42;;;;;;;8.43;3.90;;;30.30;75.90;;;;;;5013656;28;20483;-66
2022/06/16 11:38:17;;;;;;;5.27;3.33;;;30.30;77.80;;;;;;5012407;28;20466;-67
2022/06/16 11:43:45;;;;;;;5.40;3.70;;;30.70;75.10;;;;;;5030380;28;20470;-70
2022/06/16 11:46:21;;;;;;;5.13;3.33;;;30.50;76.40;;;;;;5031869;28;20455;-69
2022/06/16 11:49:03;;;;;;;7.30;4.57;;;30.50;76.80;;;;;;5031995;28;20465;-70
2022/06/16 11:51:38;;;;;;;5.50;3.30;;;30.70;76.80;;;;;;5031959;28;20516;-70
2022/06/16 11:54:21;;;;;;;7.27;3.77;;;30.90;76.30;;;;;;5031319;28;20477;-70
2022/06/16 11:56:54;;;;;;;5.23;3.80;;;31.00;73.50;;;;;;5031608;28;20945;-67
2022/06/16 11:59:50;;;;;;;5.97;3.63;;;30.80;74.70;;;;;;5031772;28;20454;-68
2022/06/16 12:02:37;;;;;;;7.30;3.57;;;30.60;74.60;;;;;;5030499;28;20809;-67
2022/06/16 12:05:20;;;;;;;6.10;3.80;;;30.70;74.50;;;;;;5031825;28;20937;-67
2022/06/16 12:08:08;;;;;;;4.37;3.07;;;30.80;75.00;;;;;;5032012;28;20528;-67
2022/06/16 12:10:40;;;;;;;5.33;3.63;;;30.90;74.90;;;;;;5031957;28;20466;-66
2022/06/16 12:13:15;;;;;;;5.67;3.67;;;31.20;74.00;;;;;;5031548;28;20467;-72
2022/06/16 12:15:50;;;;;;;4.07;3.17;;;31.40;74.80;;;;;;5031267;28;20490;-73
2022/06/16 12:18:36;;;;;;;5.47;3.57;;;31.40;72.50;;;;;;5030466;28;20807;-70
2022/06/16 12:21:13;;;;;;;5.50;3.83;;;31.60;74.10;;;;;;5031328;28;20459;-73
2022/06/16 12:23:50;;;;;;;4.17;2.90;;;31.80;73.80;;;;;;5031318;28;20833;-75
2022/06/16 12:26:22;;;;;;;5.60;3.30;;;31.90;72.50;;;;;;5031388;28;20453;-75
2022/06/16 12:29:01;;;;;;;4.93;3.70;;;32.00;71.70;;;;;;5031219;28;20516;-75
2022/06/16 12:31:38;;;;;;;7.47;3.40;;;32.00;71.40;;;;;;5031480;28;20467;-77
2022/06/16 12:34:15;;;;;;;7.47;3.80;;;31.80;70.70;;;;;;5031296;28;20957;-73
2022/06/16 12:36:49;;;;;;;6.40;3.80;;;31.70;71.40;;;;;;5031227;28;20848;-74
2022/06/16 12:39:25;;;;;;;3.70;2.97;;;31.90;71.80;;;;;;5031146;28;20458;-74
2022/06/16 12:41:56;;;;;;;4.80;3.20;;;32.00;69.30;;;;;;5033666;28;21043;-76
2022/06/16 12:44:30;;;;;;;5.03;3.20;;;32.10;69.30;;;;;;5034923;28;20947;-71
2022/06/16 12:47:12;;;;;;;4.20;3.10;;;32.20;68.80;;;;;;5034242;28;20461;-75
2022/06/16 12:49:52;;;;;;;3.83;3.03;;;32.20;68.10;;;;;;5023531;28;20553;-75
2022/06/16 12:52:25;;;;;;;6.33;3.60;;;32.10;68.00;;;;;;5034625;28;20454;-75
2022/06/16 12:55:00;;;;;;;4.50;3.27;;;31.80;70.30;;;;;;5034192;28;20495;-76
2022/06/16 12:57:32;;;;;;;4.73;3.33;;;32.00;69.70;;;;;;5034065;28;20481;-76
2022/06/16 13:00:02;;;;;;;4.00;2.80;;;32.30;68.00;;;;;;5033871;28;20481;-75
2022/06/16 13:02:37;;;;;;;4.50;3.20;;;32.40;68.90;;;;;;5034009;28;20549;-76
2022/06/16 13:05:09;;;;;;;4.53;3.20;;;32.40;68.50;;;;;;5033836;28;20454;-67
2022/06/16 13:07:38;;;;;;;4.53;3.00;;;32.60;69.20;;;;;;5045422;28;20461;-66
2022/06/16 13:10:12;;;;;;;3.70;3.00;;;32.80;66.00;;;;;;5041413;28;20451;-66
2022/06/16 13:12:43;;;;;;;3.83;2.90;;;33.00;64.50;;;;;;5041049;28;20459;-73
2022/06/16 13:15:16;;;;;;;4.07;3.20;;;33.00;65.10;;;;;;5041508;28;20489;-63
2022/06/16 13:17:50;;;;;;;7.20;3.00;;;32.90;64.40;;;;;;5038161;28;20516;-64
2022/06/16 13:20:20;;;;;;;6.47;3.10;;;32.90;64.90;;;;;;5044624;28;20481;-64
2022/06/16 13:22:55;;;;;;;4.27;2.80;;;32.80;64.50;;;;;;5049758;28;20806;-63
2022/06/16 13:25:43;;;;;;;3.50;2.80;;;33.00;65.30;;;;;;5054381;28;20457;-64
2022/06/16 13:28:18;;;;;;;4.13;2.90;;;33.20;64.00;;;;;;5053812;28;20461;-64